WST716 MYNN-MYGF
Flight info
| Callsign | WST716 |
|---|---|
| Flight time | 0h 27m |
| Altitude | 16000 |
| Route | PEACH BR65V ZFP |
| Aircraft | E45X/M-SDFGIRW/S |
Departure
| Time | 2026-04-14 21:52 |
|---|---|
| Airport | Lynden Pindling International Airport (MYNN) |
Arrival
| Time | 2026-04-14 22:19 |
|---|---|
| Airport | Grand Bahama International Airport (MYGF) |
| Time | Latitude | Longitude | Altitude | Speed | Heading |
|---|---|---|---|---|---|
| 2026-04-14 21:33 | 25.04747 | -77.46595 | 22 ft | 0 kts | 179° |
| 2026-04-14 21:47 | 25.04746 | -77.46595 | 22 ft | 0 kts | 179° |
| 2026-04-14 21:47 | 25.04735 | -77.46614 | 22 ft | 6 kts | 257° |
| 2026-04-14 21:47 | 25.04728 | -77.46665 | 22 ft | 6 kts | 277° |
| 2026-04-14 21:47 | 25.04728 | -77.46719 | 22 ft | 8 kts | 228° |
| 2026-04-14 21:48 | 25.04710 | -77.46783 | 22 ft | 10 kts | 306° |
| 2026-04-14 21:48 | 25.04769 | -77.46849 | 22 ft | 12 kts | 314° |
| 2026-04-14 21:48 | 25.04836 | -77.46921 | 23 ft | 13 kts | 315° |
| 2026-04-14 21:48 | 25.04904 | -77.47001 | 25 ft | 14 kts | 313° |
| 2026-04-14 21:49 | 25.04983 | -77.47089 | 25 ft | 17 kts | 315° |
| 2026-04-14 21:49 | 25.05073 | -77.47189 | 25 ft | 19 kts | 315° |
| 2026-04-14 21:49 | 25.05173 | -77.47300 | 22 ft | 19 kts | 315° |
| 2026-04-14 21:49 | 25.05220 | -77.47406 | 22 ft | 12 kts | 266° |
| 2026-04-14 21:50 | 25.05196 | -77.47503 | 22 ft | 13 kts | 242° |
| 2026-04-14 21:50 | 25.05170 | -77.47550 | 22 ft | 1 kts | 219° |
| 2026-04-14 21:50 | 25.05164 | -77.47546 | 22 ft | 1 kts | 135° |
| 2026-04-14 21:50 | 25.05162 | -77.47544 | 22 ft | 0 kts | 135° |
| 2026-04-14 21:51 | 25.05161 | -77.47543 | 22 ft | 0 kts | 135° |
| 2026-04-14 21:51 | 25.05160 | -77.47542 | 22 ft | 1 kts | 135° |
| 2026-04-14 21:51 | 25.05141 | -77.47522 | 22 ft | 14 kts | 136° |
| 2026-04-14 21:51 | 25.04873 | -77.47225 | 25 ft | 92 kts | 134° |
| 2026-04-14 21:52 | 25.04259 | -77.46545 | 24 ft | 152 kts | 133° |
| 2026-04-14 21:52 | 25.03455 | -77.45658 | 369 ft | 174 kts | 131° |
| 2026-04-14 21:52 | 25.02553 | -77.44666 | 954 ft | 189 kts | 131° |
| 2026-04-14 21:52 | 25.01589 | -77.43630 | 1612 ft | 203 kts | 130° |
| 2026-04-14 21:53 | 25.00682 | -77.42410 | 2348 ft | 207 kts | 107° |
| 2026-04-14 21:53 | 25.00637 | -77.40897 | 3221 ft | 202 kts | 68° |
| 2026-04-14 21:53 | 25.01487 | -77.39706 | 4098 ft | 204 kts | 42° |
| 2026-04-14 21:53 | 25.02630 | -77.38683 | 4628 ft | 225 kts | 41° |
| 2026-04-14 21:54 | 25.04064 | -77.37793 | 5082 ft | 252 kts | 16° |
| 2026-04-14 21:54 | 25.05848 | -77.37926 | 5970 ft | 265 kts | 343° |
| 2026-04-14 21:54 | 25.07387 | -77.39121 | 6814 ft | 277 kts | 317° |
| 2026-04-14 21:54 | 25.08674 | -77.40682 | 7648 ft | 279 kts | 319° |
| 2026-04-14 21:55 | 25.10090 | -77.42208 | 8468 ft | 282 kts | 320° |
| 2026-04-14 21:55 | 25.11501 | -77.43715 | 9284 ft | 285 kts | 320° |
| 2026-04-14 21:55 | 25.12933 | -77.45239 | 10088 ft | 287 kts | 320° |
| 2026-04-14 21:55 | 25.14393 | -77.46793 | 10815 ft | 294 kts | 319° |
| 2026-04-14 21:56 | 25.15892 | -77.48387 | 11363 ft | 306 kts | 319° |
| 2026-04-14 21:56 | 25.17458 | -77.50054 | 11906 ft | 316 kts | 319° |
| 2026-04-14 21:56 | 25.19075 | -77.51776 | 12464 ft | 326 kts | 319° |
| 2026-04-14 21:56 | 25.20733 | -77.53542 | 13002 ft | 336 kts | 319° |
| 2026-04-14 21:57 | 25.22449 | -77.55372 | 13503 ft | 346 kts | 319° |
| 2026-04-14 21:57 | 25.24201 | -77.57240 | 14006 ft | 355 kts | 319° |
| 2026-04-14 21:57 | 25.25990 | -77.59148 | 14510 ft | 362 kts | 319° |
| 2026-04-14 21:57 | 25.27818 | -77.61099 | 15176 ft | 364 kts | 319° |
| 2026-04-14 21:58 | 25.29637 | -77.63042 | 15843 ft | 366 kts | 319° |
| 2026-04-14 21:58 | 25.31505 | -77.65037 | 15999 ft | 379 kts | 318° |
| 2026-04-14 21:58 | 25.33433 | -77.67097 | 16011 ft | 390 kts | 318° |
| 2026-04-14 21:58 | 25.35419 | -77.69221 | 16004 ft | 396 kts | 318° |
| 2026-04-14 21:59 | 25.37383 | -77.71322 | 16000 ft | 397 kts | 318° |
| 2026-04-14 21:59 | 25.39382 | -77.73461 | 16005 ft | 397 kts | 317° |
| 2026-04-14 21:59 | 25.41391 | -77.75612 | 16004 ft | 398 kts | 318° |
| 2026-04-14 21:59 | 25.43430 | -77.77682 | 16001 ft | 396 kts | 324° |
| 2026-04-14 22:00 | 25.45664 | -77.79489 | 16010 ft | 396 kts | 326° |
| 2026-04-14 22:00 | 25.47887 | -77.81291 | 16009 ft | 397 kts | 325° |
| 2026-04-14 22:00 | 25.50135 | -77.83117 | 16012 ft | 398 kts | 325° |
| 2026-04-14 22:00 | 25.52377 | -77.84940 | 16010 ft | 400 kts | 325° |
| 2026-04-14 22:01 | 25.54644 | -77.86784 | 16008 ft | 399 kts | 326° |
| 2026-04-14 22:01 | 25.56876 | -77.88600 | 16008 ft | 397 kts | 325° |
| 2026-04-14 22:01 | 25.59092 | -77.90404 | 16007 ft | 394 kts | 325° |
| 2026-04-14 22:01 | 25.61339 | -77.92235 | 16012 ft | 392 kts | 325° |
| 2026-04-14 22:02 | 25.63521 | -77.94014 | 16011 ft | 391 kts | 326° |
| 2026-04-14 22:02 | 25.65728 | -77.95814 | 16009 ft | 389 kts | 325° |
| 2026-04-14 22:02 | 25.67906 | -77.97590 | 16008 ft | 385 kts | 325° |
| 2026-04-14 22:02 | 25.70060 | -77.99348 | 16012 ft | 381 kts | 325° |
| 2026-04-14 22:03 | 25.72226 | -78.01116 | 15717 ft | 382 kts | 326° |
| 2026-04-14 22:03 | 25.74329 | -78.02836 | 15119 ft | 371 kts | 326° |
| 2026-04-14 22:03 | 25.76389 | -78.04520 | 14516 ft | 363 kts | 326° |
| 2026-04-14 22:03 | 25.78415 | -78.06176 | 13908 ft | 355 kts | 326° |
| 2026-04-14 22:04 | 25.80386 | -78.07789 | 13269 ft | 350 kts | 326° |
| 2026-04-14 22:04 | 25.82362 | -78.09405 | 12588 ft | 347 kts | 326° |
| 2026-04-14 22:04 | 25.84278 | -78.10974 | 11925 ft | 344 kts | 326° |
| 2026-04-14 22:04 | 25.86218 | -78.12563 | 11250 ft | 342 kts | 326° |
| 2026-04-14 22:05 | 25.88151 | -78.14146 | 10569 ft | 340 kts | 326° |
| 2026-04-14 22:05 | 25.90052 | -78.15704 | 9901 ft | 338 kts | 326° |
| 2026-04-14 22:05 | 25.91930 | -78.17246 | 9411 ft | 321 kts | 326° |
| 2026-04-14 22:05 | 25.93659 | -78.18666 | 9181 ft | 296 kts | 326° |
| 2026-04-14 22:06 | 25.95302 | -78.20013 | 8990 ft | 285 kts | 326° |
| 2026-04-14 22:06 | 25.96914 | -78.21336 | 8798 ft | 286 kts | 326° |
| 2026-04-14 22:06 | 25.98500 | -78.22638 | 8601 ft | 281 kts | 326° |
| 2026-04-14 22:06 | 26.00084 | -78.23940 | 8404 ft | 277 kts | 327° |
| 2026-04-14 22:07 | 26.01646 | -78.25223 | 8207 ft | 274 kts | 326° |
| 2026-04-14 22:07 | 26.03166 | -78.26472 | 8013 ft | 271 kts | 327° |
| 2026-04-14 22:07 | 26.04707 | -78.27740 | 7816 ft | 268 kts | 327° |
| 2026-04-14 22:07 | 26.06212 | -78.28978 | 7618 ft | 265 kts | 327° |
| 2026-04-14 22:08 | 26.07710 | -78.30210 | 7423 ft | 268 kts | 327° |
| 2026-04-14 22:08 | 26.09250 | -78.31477 | 7245 ft | 277 kts | 327° |
| 2026-04-14 22:08 | 26.10806 | -78.32758 | 7069 ft | 277 kts | 327° |
| 2026-04-14 22:08 | 26.12381 | -78.34064 | 7031 ft | 278 kts | 324° |
| 2026-04-14 22:09 | 26.13735 | -78.35646 | 7025 ft | 284 kts | 313° |
| 2026-04-14 22:09 | 26.15025 | -78.37298 | 6899 ft | 276 kts | 314° |
| 2026-04-14 22:09 | 26.16287 | -78.38910 | 6777 ft | 274 kts | 314° |
| 2026-04-14 22:09 | 26.17540 | -78.40514 | 6603 ft | 269 kts | 314° |
| 2026-04-14 22:10 | 26.18785 | -78.42104 | 6433 ft | 271 kts | 314° |
| 2026-04-14 22:10 | 26.20032 | -78.43699 | 6209 ft | 273 kts | 314° |
| 2026-04-14 22:10 | 26.21285 | -78.45300 | 5967 ft | 271 kts | 314° |
| 2026-04-14 22:10 | 26.22534 | -78.46897 | 5727 ft | 270 kts | 314° |
| 2026-04-14 22:11 | 26.23760 | -78.48466 | 5506 ft | 267 kts | 314° |
| 2026-04-14 22:11 | 26.24988 | -78.50037 | 5311 ft | 265 kts | 315° |
| 2026-04-14 22:11 | 26.26205 | -78.51595 | 5118 ft | 262 kts | 315° |
| 2026-04-14 22:11 | 26.27406 | -78.53133 | 4926 ft | 262 kts | 315° |
| 2026-04-14 22:12 | 26.28627 | -78.54696 | 4738 ft | 265 kts | 314° |
| 2026-04-14 22:12 | 26.29851 | -78.56264 | 4550 ft | 268 kts | 314° |
| 2026-04-14 22:12 | 26.31084 | -78.57845 | 4354 ft | 270 kts | 314° |
| 2026-04-14 22:12 | 26.32322 | -78.59432 | 4163 ft | 271 kts | 314° |
| 2026-04-14 22:13 | 26.33566 | -78.61028 | 3971 ft | 266 kts | 314° |
| 2026-04-14 22:13 | 26.34780 | -78.62586 | 3777 ft | 263 kts | 314° |
| 2026-04-14 22:13 | 26.35985 | -78.64133 | 3586 ft | 261 kts | 314° |
| 2026-04-14 22:13 | 26.37181 | -78.65668 | 3379 ft | 260 kts | 314° |
| 2026-04-14 22:14 | 26.38390 | -78.67221 | 3166 ft | 258 kts | 314° |
| 2026-04-14 22:14 | 26.39572 | -78.68740 | 2968 ft | 256 kts | 314° |
| 2026-04-14 22:14 | 26.40745 | -78.70248 | 2784 ft | 254 kts | 314° |
| 2026-04-14 22:14 | 26.41882 | -78.71712 | 2679 ft | 245 kts | 314° |
| 2026-04-14 22:15 | 26.43001 | -78.73150 | 2567 ft | 236 kts | 315° |
| 2026-04-14 22:15 | 26.44126 | -78.74445 | 2450 ft | 224 kts | 330° |
| 2026-04-14 22:15 | 26.45458 | -78.75301 | 2355 ft | 215 kts | 335° |
| 2026-04-14 22:15 | 26.46742 | -78.76107 | 2283 ft | 204 kts | 335° |
| 2026-04-14 22:16 | 26.47947 | -78.76860 | 2139 ft | 195 kts | 336° |
| 2026-04-14 22:16 | 26.49122 | -78.77593 | 2000 ft | 187 kts | 336° |
| 2026-04-14 22:16 | 26.50260 | -78.78190 | 1856 ft | 172 kts | 356° |
| 2026-04-14 22:16 | 26.51293 | -78.77956 | 1674 ft | 137 kts | 38° |
| 2026-04-14 22:17 | 26.51912 | -78.77224 | 1387 ft | 127 kts | 55° |
| 2026-04-14 22:17 | 26.52422 | -78.76378 | 1137 ft | 131 kts | 58° |
| 2026-04-14 22:17 | 26.52901 | -78.75483 | 939 ft | 133 kts | 59° |
| 2026-04-14 22:17 | 26.53361 | -78.74583 | 748 ft | 134 kts | 59° |
| 2026-04-14 22:18 | 26.53818 | -78.73675 | 560 ft | 135 kts | 59° |
| 2026-04-14 22:18 | 26.54275 | -78.72758 | 369 ft | 135 kts | 59° |
| 2026-04-14 22:18 | 26.54736 | -78.71830 | 184 ft | 135 kts | 59° |
| 2026-04-14 22:18 | 26.55191 | -78.70915 | 32 ft | 133 kts | 58° |
| 2026-04-14 22:19 | 26.55617 | -78.70064 | 12 ft | 110 kts | 61° |
| 2026-04-14 22:19 | 26.55934 | -78.69409 | 12 ft | 9 kts | 103° |
| 2026-04-14 22:19 | 26.55873 | -78.69411 | 12 ft | 11 kts | 197° |
| 2026-04-14 22:20 | 26.55792 | -78.69443 | 12 ft | 13 kts | 212° |
| 2026-04-14 22:20 | 26.55714 | -78.69518 | 12 ft | 16 kts | 221° |
| 2026-04-14 22:20 | 26.55622 | -78.69607 | 12 ft | 18 kts | 220° |
| 2026-04-14 22:20 | 26.55498 | -78.69727 | 12 ft | 30 kts | 220° |
| 2026-04-14 22:21 | 26.55300 | -78.69921 | 12 ft | 44 kts | 221° |
| 2026-04-14 22:21 | 26.55060 | -78.70154 | 12 ft | 43 kts | 218° |
| 2026-04-14 22:21 | 26.54942 | -78.70248 | 12 ft | 13 kts | 173° |
| 2026-04-14 22:21 | 26.54920 | -78.70158 | 12 ft | 12 kts | 91° |
| 2026-04-14 22:22 | 26.54918 | -78.70059 | 12 ft | 12 kts | 91° |
| 2026-04-14 22:22 | 26.54915 | -78.69965 | 12 ft | 12 kts | 91° |
| 2026-04-14 22:22 | 26.54913 | -78.69865 | 12 ft | 12 kts | 91° |
| 2026-04-14 22:22 | 26.54909 | -78.69783 | 12 ft | 5 kts | 105° |
| 2026-04-14 22:23 | 26.54884 | -78.69753 | 12 ft | 3 kts | 141° |
| 2026-04-14 22:23 | 26.54872 | -78.69754 | 12 ft | 0 kts | 202° |